Pointblank, Texas
Current Conditions -  °F | °C
As of 4:53 PM on Sunday 21 Dec 2014 (Local Time) from KUTS Reporting Station
Overcast Overcast  
Wind Chill: 56°   Ceiling: 2200
Heat Index: 56°   Visibility: 10mi
Dew Point: 48°   Wind: 3mph
Humidity: 75%   Direction: 130°SE
Pressure: 29.94"   Gusts: NA
Location:  30.74°N, 95.21°W
Report Text: KUTS 212253Z AUTO 13003KT 10SM OVC022 13/09 A2994 RMK AO2 SLP135 T01330089
Loading
Personal Weather Stations






























Interactive Weather Map New forecast layout! Learn more

10-Day Weather Forecast

Advertisements
Track Severe Weather on mobile